Time;durP1;ratioP1;P1;durP2;ratioP2;P2;SDS_P1;SDS_P2;PMS_P1;PMS_P2;Temp;Humidity;BMP_temperature;BMP_pressure;BME280_temperature;BME280_humidity;BME280_pressure;Samples;Min_cycle;Max_cycle;Signal;HPM_P1;HPM_P2
2023/03/07 00:01:39;;;;;;;63.20;26.70;;;;;;;8.19;63.49;100192.78;5034454;28;20061;-81
2023/03/07 00:04:05;;;;;;;61.75;25.20;;;;;;;8.16;63.67;100193.00;5032308;28;20032;-81
2023/03/07 00:06:30;;;;;;;59.78;24.08;;;;;;;8.05;63.74;100182.25;5031600;28;20041;-82
2023/03/07 00:08:59;;;;;;;63.30;25.85;;;;;;;8.13;63.58;100185.22;5031490;28;20026;-81
2023/03/07 00:11:25;;;;;;;55.28;25.23;;;;;;;8.02;64.07;100178.00;5031021;28;20029;-81
2023/03/07 00:13:51;;;;;;;55.42;25.33;;;;;;;8.06;63.76;100179.47;5031409;28;20112;-81
2023/03/07 00:16:20;;;;;;;54.90;25.08;;;;;;;8.00;64.32;100174.59;5031275;28;20040;-82
2023/03/07 00:18:45;;;;;;;51.05;25.42;;;;;;;8.00;64.65;100168.41;5031289;28;20036;-81
2023/03/07 00:21:14;;;;;;;58.05;24.88;;;;;;;7.80;65.38;100169.09;5030942;28;20030;-82
2023/03/07 00:23:42;;;;;;;71.97;27.67;;;;;;;7.90;65.16;100172.75;5030959;28;20079;-81
2023/03/07 00:26:10;;;;;;;52.08;24.83;;;;;;;7.75;65.74;100171.25;5031159;28;20100;-81
2023/03/07 00:28:36;;;;;;;63.13;25.20;;;;;;;7.82;65.59;100161.78;5031084;28;20028;-81
2023/03/07 00:31:04;;;;;;;54.70;26.45;;;;;;;7.87;65.93;100162.28;5031641;28;20033;-81
2023/03/07 00:33:29;;;;;;;56.65;25.65;;;;;;;7.79;65.96;100154.84;5030863;28;20088;-81
2023/03/07 00:36:07;;;;;;;56.25;25.38;;;;;;;7.85;66.37;100156.19;5031081;28;20029;-81
2023/03/07 00:38:33;;;;;;;48.38;24.38;;;;;;;7.71;66.68;100151.03;5040050;28;20028;-81
2023/03/07 00:41:06;;;;;;;51.63;25.50;;;;;;;7.78;66.47;100144.25;5043926;28;20117;-81
2023/03/07 00:43:34;;;;;;;50.58;24.58;;;;;;;7.83;66.84;100150.94;5034839;28;20034;-81
2023/03/07 00:46:00;;;;;;;49.60;23.73;;;;;;;7.78;66.50;100142.44;5030906;28;20064;-81
2023/03/07 00:48:27;;;;;;;55.70;23.90;;;;;;;7.78;67.01;100131.72;5030537;28;20057;-81
2023/03/07 00:50:53;;;;;;;48.90;24.23;;;;;;;7.66;66.92;100109.44;5030716;28;20041;-81
2023/03/07 00:53:19;;;;;;;45.38;23.80;;;;;;;7.78;67.22;100129.06;5030449;28;20045;-82
2023/03/07 00:56:14;;;;;;;50.13;22.98;;;;;;;7.90;66.89;100127.22;5030623;28;20029;-82
2023/03/07 00:58:40;;;;;;;43.05;22.48;;;;;;;7.83;67.03;100140.25;5030711;28;20033;-81
2023/03/07 01:01:07;;;;;;;45.13;22.30;;;;;;;7.88;67.14;100132.72;5029031;28;20404;-81
2023/03/07 01:03:33;;;;;;;41.63;22.73;;;;;;;7.82;67.13;100124.31;5030677;28;20033;-80
2023/03/07 01:06:07;;;;;;;48.38;22.65;;;;;;;7.77;67.68;100118.47;5030983;28;20088;-81
2023/03/07 01:08:33;;;;;;;53.60;27.75;;;;;;;7.82;67.63;100116.28;5029380;28;20033;-81
2023/03/07 01:11:01;;;;;;;40.20;24.88;;;;;;;7.66;68.00;100116.63;5030847;28;20536;-81
2023/03/07 01:13:27;;;;;;;48.38;26.08;;;;;;;7.85;68.29;100116.03;5030671;28;20053;-81
2023/03/07 01:15:52;;;;;;;39.33;23.48;;;;;;;7.87;67.79;100106.06;5030465;28;20060;-81
2023/03/07 01:18:18;;;;;;;44.45;24.33;;;;;;;7.96;67.92;100113.38;5031245;28;20029;-80
2023/03/07 01:20:43;;;;;;;42.00;24.13;;;;;;;8.02;67.46;100099.50;5030850;28;20030;-82
2023/03/07 01:23:09;;;;;;;43.28;23.73;;;;;;;7.97;67.36;100088.31;5030319;28;20029;-81
2023/03/07 01:25:39;;;;;;;46.63;24.73;;;;;;;8.06;67.27;100101.81;5030334;28;20056;-81
2023/03/07 01:28:05;;;;;;;46.55;24.45;;;;;;;8.07;67.55;100106.19;5030433;28;20026;-81
2023/03/07 01:30:31;;;;;;;37.78;23.45;;;;;;;8.07;67.84;100103.50;5030507;28;20025;-82
2023/03/07 01:32:58;;;;;;;45.08;24.58;;;;;;;8.06;67.92;100101.81;5030323;28;20053;-81
2023/03/07 01:35:24;;;;;;;50.38;26.67;;;;;;;7.99;68.17;100100.59;5030216;28;20112;-81
2023/03/07 01:37:50;;;;;;;49.78;25.65;;;;;;;7.77;68.53;100099.75;5039187;28;20144;-82
2023/03/07 01:40:17;;;;;;;54.35;25.98;;;;;;;7.75;69.23;100094.50;5040031;28;20021;-80
2023/03/07 01:42:43;;;;;;;61.40;29.15;;;;;;;7.88;69.08;100099.75;5033558;28;20034;-82
2023/03/07 01:45:11;;;;;;;48.75;25.38;;;;;;;7.76;69.35;100084.63;5032257;28;20021;-81
2023/03/07 01:47:37;;;;;;;46.35;25.40;;;;;;;7.84;69.18;100092.91;5036784;28;20044;-81
2023/03/07 01:50:07;;;;;;;48.03;25.38;;;;;;;7.90;69.57;100089.75;5049794;28;20029;-80
2023/03/07 01:52:37;;;;;;;49.95;26.58;;;;;;;7.94;69.49;100083.19;5046732;28;20029;-80
2023/03/07 01:55:10;;;;;;;42.25;24.48;;;;;;;7.97;69.73;100082.94;5039775;28;20386;-81
2023/03/07 01:57:38;;;;;;;43.53;24.27;;;;;;;8.07;69.58;100089.28;5033480;28;20115;-81
2023/03/07 02:00:12;;;;;;;46.83;24.73;;;;;;;8.05;69.29;100076.00;5034440;28;20033;-81
2023/03/07 02:02:42;;;;;;;46.22;23.85;;;;;;;8.02;69.74;100076.25;5035277;28;20026;-81
2023/03/07 02:05:24;;;;;;;48.70;25.55;;;;;;;7.98;69.13;100072.09;5033277;28;20029;-82
2023/03/07 02:07:51;;;;;;;45.63;23.38;;;;;;;7.92;69.87;100074.44;5029685;28;20095;-82
2023/03/07 02:10:20;;;;;;;49.50;25.40;;;;;;;8.05;69.75;100076.00;5029628;28;20080;-82
2023/03/07 02:12:47;;;;;;;40.40;23.85;;;;;;;7.89;69.87;100070.16;5029837;28;20036;-81
2023/03/07 02:15:13;;;;;;;46.13;23.70;;;;;;;7.98;70.16;100073.94;5027993;28;20442;-81
2023/03/07 02:17:41;;;;;;;46.47;26.10;;;;;;;8.01;70.11;100081.75;5029419;28;20073;-81
2023/03/07 02:20:34;;;;;;;69.90;28.05;;;;;;;8.06;70.49;100071.50;5029242;28;20033;-81
2023/03/07 02:23:02;;;;;;;57.00;26.10;;;;;;;8.07;70.35;100075.91;5028983;28;20021;-81
2023/03/07 02:25:40;;;;;;;47.83;27.50;;;;;;;8.02;70.51;100083.44;5028786;28;20120;-81
2023/03/07 02:28:10;;;;;;;49.65;24.33;;;;;;;8.06;70.49;100076.88;5028918;28;20032;-82
2023/03/07 02:30:36;;;;;;;51.92;23.92;;;;;;;7.80;70.79;100075.41;5029274;28;20028;-82
2023/03/07 02:33:02;;;;;;;45.70;24.30;;;;;;;7.94;70.71;100077.84;5029380;28;20060;-82
2023/03/07 02:35:27;;;;;;;47.05;24.27;;;;;;;7.90;71.05;100077.22;5029769;28;20392;-82
2023/03/07 02:37:58;;;;;;;41.70;22.58;;;;;;;8.00;71.02;100077.34;5042559;28;20467;-81
2023/03/07 02:40:28;;;;;;;39.35;22.95;;;;;;;7.90;70.44;100071.00;5041902;28;20024;-81
2023/03/07 02:42:55;;;;;;;40.15;21.92;;;;;;;7.87;70.98;100074.78;5029549;28;20038;-81
2023/03/07 02:45:21;;;;;;;42.63;22.17;;;;;;;7.94;70.69;100072.47;5028672;28;20112;-81
2023/03/07 02:47:46;;;;;;;50.22;24.27;;;;;;;7.71;71.74;100076.09;5028931;28;20108;-82
2023/03/07 02:50:14;;;;;;;50.72;23.80;;;;;;;7.82;72.05;100070.78;5029139;28;20049;-81
2023/03/07 02:52:39;;;;;;;38.03;23.45;;;;;;;7.91;71.63;100078.09;5028811;28;20041;-79
2023/03/07 02:55:06;;;;;;;37.00;21.83;;;;;;;7.82;72.15;100071.63;5031440;28;20021;-81
2023/03/07 02:57:32;;;;;;;37.67;23.00;;;;;;;7.69;72.04;100062.84;5032108;28;20061;-82
2023/03/07 02:59:58;;;;;;;38.80;22.80;;;;;;;7.78;71.71;100071.97;5032038;28;20060;-82
2023/03/07 03:02:24;;;;;;;34.25;20.98;;;;;;;7.77;72.07;100059.59;5032006;28;20579;-82
2023/03/07 03:04:50;;;;;;;42.72;23.40;;;;;;;7.82;72.03;100060.06;5032540;28;20108;-81
2023/03/07 03:07:15;;;;;;;38.28;22.00;;;;;;;7.84;71.78;100064.31;5032157;28;20025;-81
2023/03/07 03:09:41;;;;;;;41.75;21.40;;;;;;;7.83;71.67;100064.47;5032205;28;20112;-81
2023/03/07 03:12:06;;;;;;;32.15;20.02;;;;;;;7.79;71.65;100060.31;5032328;28;20028;-81
2023/03/07 03:14:32;;;;;;;38.88;21.73;;;;;;;7.81;71.66;100059.22;5031661;28;20056;-82
2023/03/07 03:16:57;;;;;;;43.20;20.80;;;;;;;7.67;72.01;100048.75;5032418;28;20030;-81
2023/03/07 03:19:22;;;;;;;40.15;22.23;;;;;;;7.77;71.94;100054.25;5030842;28;20060;-82
2023/03/07 03:21:48;;;;;;;37.13;20.80;;;;;;;7.59;72.39;100035.97;5032303;28;20091;-82
2023/03/07 03:24:14;;;;;;;46.65;21.17;;;;;;;7.70;71.88;100059.22;5030489;28;20033;-82
2023/03/07 03:26:39;;;;;;;43.53;22.08;;;;;;;7.71;72.71;100043.97;5031954;28;20037;-81
2023/03/07 03:29:05;;;;;;;37.58;21.92;;;;;;;7.65;72.32;100046.19;5031998;28;20125;-82
2023/03/07 03:31:31;;;;;;;45.08;21.98;;;;;;;7.73;72.21;100048.28;5032188;28;20476;-81
2023/03/07 03:33:57;;;;;;;46.80;20.00;;;;;;;7.57;72.41;100045.94;5030595;28;20053;-82
2023/03/07 03:36:24;;;;;;;37.17;22.25;;;;;;;7.62;72.37;100046.44;5041877;28;20404;-81
2023/03/07 03:38:54;;;;;;;42.22;21.83;;;;;;;7.65;73.06;100048.00;5063717;28;20068;-80
2023/03/07 03:41:19;;;;;;;37.63;22.83;;;;;;;7.66;72.84;100050.56;5055653;28;20048;-83
2023/03/07 03:43:45;;;;;;;57.70;24.70;;;;;;;7.61;73.00;100054.59;5048804;28;20063;-81
2023/03/07 03:46:10;;;;;;;42.00;22.85;;;;;;;7.48;72.98;100033.28;5048629;28;20037;-81
2023/03/07 03:48:36;;;;;;;49.30;24.67;;;;;;;7.52;73.36;100034.72;5031619;28;20033;-80
2023/03/07 03:51:07;;;;;;;46.50;24.38;;;;;;;7.48;73.67;100043.97;5048629;28;20045;-80
2023/03/07 03:53:35;;;;;;;55.30;24.77;;;;;;;7.60;73.76;100037.69;5048692;28;20492;-82
2023/03/07 03:56:01;;;;;;;39.65;24.73;;;;;;;7.73;73.73;100044.75;5048527;28;20033;-82
2023/03/07 03:58:27;;;;;;;46.00;23.92;;;;;;;7.66;73.63;100037.19;5048809;28;20051;-82
2023/03/07 04:00:52;;;;;;;50.50;26.60;;;;;;;7.64;73.32;100043.63;5048940;28;20024;-81
2023/03/07 04:03:18;;;;;;;53.08;25.55;;;;;;;7.76;73.20;100031.13;5050604;28;20043;-81
2023/03/07 04:05:43;;;;;;;50.40;24.50;;;;;;;7.74;73.38;100019.66;5051251;28;20191;-82
2023/03/07 04:08:09;;;;;;;44.38;24.98;;;;;;;7.70;73.41;100023.56;5048432;28;20029;-82
2023/03/07 04:10:34;;;;;;;47.30;25.45;;;;;;;7.59;72.83;99997.63;5034409;28;20033;-81
2023/03/07 04:12:59;;;;;;;54.85;23.52;;;;;;;7.74;72.87;100012.47;5031163;28;20378;-81
2023/03/07 04:15:25;;;;;;;47.67;24.88;;;;;;;7.75;72.99;100016.00;5031759;28;20473;-81
2023/03/07 04:17:50;;;;;;;41.65;24.52;;;;;;;7.82;72.79;100019.91;5031262;28;20048;-83
2023/03/07 04:20:17;;;;;;;51.90;24.15;;;;;;;7.80;72.42;100013.84;5031533;28;20029;-80
2023/03/07 04:22:43;;;;;;;58.78;23.55;;;;;;;7.76;72.84;100001.66;5031933;28;20030;-81
2023/03/07 04:25:09;;;;;;;59.03;23.98;;;;;;;7.82;72.10;100009.22;5032246;28;20026;-81
2023/03/07 04:27:34;;;;;;;38.42;22.60;;;;;;;7.84;72.31;100008.09;5031807;28;20404;-81
2023/03/07 04:30:00;;;;;;;47.15;21.98;;;;;;;7.95;71.85;100020.66;5031274;28;20017;-80
2023/03/07 04:32:25;;;;;;;47.65;22.70;;;;;;;7.99;71.88;100022.94;5034459;28;20059;-82
2023/03/07 04:34:51;;;;;;;51.53;23.85;;;;;;;8.02;71.75;100016.47;5033589;28;20592;-84
2023/03/07 04:37:16;;;;;;;40.15;21.38;;;;;;;8.08;71.76;100016.00;5043220;28;20160;-84
2023/03/07 04:39:42;;;;;;;49.22;22.40;;;;;;;8.08;71.10;100016.00;5041217;28;20033;-83
2023/03/07 04:42:07;;;;;;;44.47;25.17;;;;;;;8.19;70.98;100034.75;5031928;28;20033;-84
2023/03/07 04:44:33;;;;;;;53.30;24.17;;;;;;;8.17;70.61;100020.59;5034610;28;20026;-80
2023/03/07 04:46:58;;;;;;;54.90;23.77;;;;;;;8.19;70.97;100030.22;5032915;28;20051;-82
2023/03/07 04:49:23;;;;;;;72.53;26.00;;;;;;;8.26;70.63;100035.91;5035376;28;20128;-81
2023/03/07 04:51:49;;;;;;;57.58;24.73;;;;;;;8.20;70.48;100036.41;5034850;28;20030;-82
2023/03/07 04:54:14;;;;;;;67.55;27.25;;;;;;;8.20;70.70;100020.34;5033527;28;20044;-79
2023/03/07 04:56:40;;;;;;;52.97;25.15;;;;;;;8.31;70.30;100025.75;5032025;28;20030;-82
2023/03/07 04:59:05;;;;;;;74.18;28.08;;;;;;;8.20;70.68;100021.19;5030555;28;20037;-83
2023/03/07 05:01:31;;;;;;;52.58;24.27;;;;;;;8.25;70.34;100026.19;5030042;28;20487;-80
2023/03/07 05:03:56;;;;;;;78.88;30.33;;;;;;;8.21;70.85;100022.06;5030188;28;20025;-81
2023/03/07 05:06:22;;;;;;;60.78;24.77;;;;;;;8.32;70.61;100037.31;5030699;28;20057;-81
2023/03/07 05:08:47;;;;;;;59.42;26.60;;;;;;;8.29;70.61;100034.88;5030096;28;20132;-82
2023/03/07 05:11:13;;;;;;;74.10;23.95;;;;;;;8.40;70.84;100037.53;5029877;28;20067;-82
2023/03/07 05:13:38;;;;;;;88.50;30.33;;;;;;;8.43;70.49;100031.91;5029661;28;20068;-80
2023/03/07 05:16:04;;;;;;;94.35;30.20;;;;;;;8.47;70.74;100042.25;5029789;28;20025;-81
2023/03/07 05:18:30;;;;;;;58.80;28.58;;;;;;;8.49;70.44;100048.34;5030188;28;20512;-80
2023/03/07 05:20:55;;;;;;;69.50;28.42;;;;;;;8.53;70.42;100035.56;5030631;28;20057;-81
2023/03/07 05:23:21;;;;;;;57.25;31.58;;;;;;;8.68;70.61;100051.19;5030702;28;20021;-82
2023/03/07 05:25:47;;;;;;;109.82;32.70;;;;;;;8.68;70.13;100042.31;5035902;28;20041;-82
2023/03/07 05:28:13;;;;;;;103.80;38.30;;;;;;;8.81;69.83;100047.53;5042375;28;20114;-81
2023/03/07 05:30:38;;;;;;;77.50;37.55;;;;;;;8.82;69.89;100049.19;5040703;28;20033;-81
2023/03/07 05:33:04;;;;;;;96.45;42.13;;;;;;;8.94;69.96;100058.91;5051330;28;20050;-83
2023/03/07 05:35:29;;;;;;;111.88;49.65;;;;;;;8.98;70.48;100063.03;5049622;28;20025;-81
2023/03/07 05:37:56;;;;;;;102.78;44.38;;;;;;;9.10;70.34;100054.81;5048319;28;20042;-81
2023/03/07 05:40:21;;;;;;;87.40;41.53;;;;;;;9.13;70.22;100043.81;5034488;28;20025;-82
2023/03/07 05:42:47;;;;;;;98.68;44.08;;;;;;;9.16;70.09;100053.44;5030736;28;20625;-83
2023/03/07 05:45:12;;;;;;;53.75;27.58;;;;;;;9.39;69.93;100057.69;5030278;28;20025;-82
2023/03/07 05:47:37;;;;;;;84.05;35.10;;;;;;;9.46;69.75;100061.56;5029542;28;20029;-83
2023/03/07 05:50:05;;;;;;;103.13;38.50;;;;;;;9.58;69.68;100065.88;5030188;28;20033;-83
2023/03/07 05:52:30;;;;;;;127.35;46.22;;;;;;;9.73;69.71;100069.06;5029306;28;20426;-81
2023/03/07 05:54:56;;;;;;;112.90;42.80;;;;;;;9.85;68.91;100076.91;5033214;28;20030;-83
2023/03/07 05:57:22;;;;;;;107.50;36.35;;;;;;;9.83;68.45;100059.22;5032325;28;20025;-85
2023/03/07 05:59:47;;;;;;;98.82;38.75;;;;;;;9.99;68.48;100069.47;5041153;28;20089;-82
2023/03/07 06:02:13;;;;;;;99.35;38.53;;;;;;;10.13;68.12;100063.72;5054668;28;20117;-82
2023/03/07 06:04:38;;;;;;;75.90;37.90;;;;;;;10.30;67.61;100063.13;5054002;28;20033;-82
2023/03/07 06:07:04;;;;;;;112.97;36.90;;;;;;;10.42;67.75;100062.03;5051948;28;20026;-82
2023/03/07 06:09:29;;;;;;;90.15;38.00;;;;;;;10.64;67.38;100072.53;5042446;28;20029;-83
2023/03/07 06:11:55;;;;;;;99.22;34.85;;;;;;;10.82;66.95;100067.34;5040471;28;20021;-85
2023/03/07 06:14:20;;;;;;;71.70;27.92;;;;;;;10.90;66.77;100057.59;5030790;28;20033;-82
2023/03/07 06:16:46;;;;;;;101.65;31.40;;;;;;;11.15;66.07;100074.16;5029405;28;20030;-82
2023/03/07 06:19:11;;;;;;;68.43;28.25;;;;;;;11.18;66.16;100063.09;5029602;28;20112;-83
2023/03/07 06:21:37;;;;;;;63.85;26.25;;;;;;;11.43;64.97;100073.28;5029093;28;20017;-83
2023/03/07 06:24:03;;;;;;;50.80;25.42;;;;;;;11.64;64.62;100068.56;5029766;28;20064;-83
2023/03/07 06:26:28;;;;;;;59.05;28.75;;;;;;;11.79;64.46;100060.91;5029818;28;20061;-85
2023/03/07 06:28:54;;;;;;;64.20;27.58;;;;;;;11.91;63.48;100071.38;5032906;28;20556;-84
2023/03/07 06:31:20;;;;;;;48.08;25.60;;;;;;;12.04;63.06;100075.56;5034531;28;20017;-85
2023/03/07 06:33:46;;;;;;;46.42;24.65;;;;;;;12.13;62.54;100075.53;5049664;28;20061;-83
2023/03/07 06:36:14;;;;;;;63.17;25.88;;;;;;;12.29;62.13;100083.00;5052990;28;20040;-84
2023/03/07 06:38:40;;;;;;;69.68;27.58;;;;;;;12.33;61.59;100087.06;5040097;28;20354;-83
2023/03/07 06:41:05;;;;;;;62.10;25.13;;;;;;;12.42;61.13;100083.47;5034136;28;20074;-82
2023/03/07 06:43:33;;;;;;;76.82;34.53;;;;;;;12.55;61.31;100089.38;5033032;28;20082;-83
2023/03/07 06:45:59;;;;;;;56.28;24.83;;;;;;;12.71;60.89;100080.63;5032104;28;20104;-83
2023/03/07 06:48:24;;;;;;;38.90;21.27;;;;;;;12.81;60.23;100076.84;5031614;28;20606;-84
2023/03/07 06:50:50;;;;;;;49.85;20.80;;;;;;;12.89;59.80;100071.56;5032541;28;20022;-85
2023/03/07 06:53:15;;;;;;;36.50;19.85;;;;;;;12.93;59.40;100069.41;5031858;28;20064;-84
2023/03/07 06:55:41;;;;;;;36.90;20.77;;;;;;;12.95;58.82;100073.66;5033103;28;20025;-84
2023/03/07 06:58:07;;;;;;;33.63;20.23;;;;;;;13.04;58.67;100088.91;5033029;28;20132;-84
2023/03/07 07:00:32;;;;;;;32.78;20.38;;;;;;;12.99;58.94;100082.28;5031503;28;20025;-84
2023/03/07 07:02:58;;;;;;;38.25;20.27;;;;;;;13.03;58.85;100081.81;5032220;28;20037;-85
2023/03/07 07:05:23;;;;;;;44.88;20.83;;;;;;;13.18;59.24;100089.44;5033172;28;20064;-82
2023/03/07 07:07:49;;;;;;;36.50;20.50;;;;;;;13.16;58.25;100089.56;5032684;28;20053;-83
2023/03/07 07:10:14;;;;;;;39.15;19.67;;;;;;;13.13;58.40;100086.31;5032834;28;20014;-84
2023/03/07 07:12:39;;;;;;;51.50;21.55;;;;;;;13.24;58.46;100091.50;5033258;28;20037;-86
2023/03/07 07:15:06;;;;;;;39.50;20.08;;;;;;;13.28;58.18;100091.03;5034554;28;20041;-85
2023/03/07 07:17:34;;;;;;;32.30;19.70;;;;;;;13.23;57.87;100093.34;5033614;28;20046;-85
2023/03/07 07:20:05;;;;;;;37.35;20.75;;;;;;;13.34;58.01;100094.94;5032945;28;20083;-85
2023/03/07 07:22:31;;;;;;;46.33;20.92;;;;;;;13.44;57.98;100095.72;5030843;28;20056;-84
2023/03/07 07:24:56;;;;;;;38.25;20.13;;;;;;;13.52;57.66;100082.28;5032315;28;20037;-84
2023/03/07 07:27:22;;;;;;;34.25;20.17;;;;;;;13.59;57.33;100089.59;5033677;28;20505;-82
2023/03/07 07:29:48;;;;;;;39.00;18.77;;;;;;;13.73;57.21;100096.28;5034436;28;20437;-83
2023/03/07 07:32:13;;;;;;;37.25;19.50;;;;;;;13.71;56.80;100087.50;5049550;28;20249;-81
2023/03/07 07:34:39;;;;;;;45.13;18.83;;;;;;;13.76;56.70;100090.56;5052109;28;20057;-83
2023/03/07 07:37:04;;;;;;;33.65;18.42;;;;;;;13.78;56.88;100088.56;5039587;28;20048;-84
2023/03/07 07:39:30;;;;;;;33.90;17.83;;;;;;;13.84;56.17;100085.22;5030965;28;20026;-85
2023/03/07 07:41:55;;;;;;;35.67;18.23;;;;;;;13.80;56.45;100074.88;5031816;28;20607;-85
2023/03/07 07:44:20;;;;;;;33.25;18.45;;;;;;;13.96;56.52;100078.53;5031552;28;20025;-84
2023/03/07 07:46:46;;;;;;;52.45;20.48;;;;;;;14.09;56.21;100078.97;5030128;28;20033;-82
2023/03/07 07:49:11;;;;;;;51.90;18.38;;;;;;;14.22;56.04;100081.22;5031433;28;20655;-84
2023/03/07 07:51:39;;;;;;;29.50;16.85;;;;;;;14.32;55.38;100081.09;5031272;28;20029;-82
2023/03/07 07:54:05;;;;;;;28.23;16.83;;;;;;;14.45;55.29;100079.69;5030426;28;20033;-83
2023/03/07 07:56:30;;;;;;;31.42;17.35;;;;;;;14.49;55.42;100072.09;5031208;28;20373;-83
2023/03/07 07:58:56;;;;;;;29.63;16.02;;;;;;;14.58;54.95;100066.53;5031288;28;20025;-83
2023/03/07 08:01:23;;;;;;;30.42;15.32;;;;;;;14.70;54.76;100075.19;5029427;28;20029;-83
2023/03/07 08:03:49;;;;;;;31.40;15.93;;;;;;;14.74;54.56;100073.84;5033396;28;20022;-84
2023/03/07 08:06:23;;;;;;;39.15;16.85;;;;;;;14.83;54.25;100063.91;5039801;28;20060;-84
2023/03/07 08:08:49;;;;;;;29.67;16.08;;;;;;;14.92;54.18;100074.56;5045388;28;20034;-82
2023/03/07 08:11:16;;;;;;;29.20;15.10;;;;;;;15.07;53.25;100077.47;5030989;28;20745;-84
2023/03/07 08:13:41;;;;;;;38.38;16.75;;;;;;;15.11;53.28;100068.84;5031025;28;20053;-83
2023/03/07 08:16:18;;;;;;;32.97;17.35;;;;;;;15.19;53.16;100059.91;5040966;28;20030;-84
2023/03/07 08:18:52;;;;;;;24.58;14.32;;;;;;;15.30;53.25;100072.25;5030700;28;20026;-83
2023/03/07 08:21:18;;;;;;;29.27;17.00;;;;;;;15.38;52.84;100056.81;5030737;28;20057;-85
2023/03/07 08:23:44;;;;;;;37.75;15.88;;;;;;;15.44;52.58;100068.88;5030765;28;20053;-85
2023/03/07 08:26:10;;;;;;;30.40;16.30;;;;;;;15.52;52.33;100067.03;5030790;28;20068;-83
2023/03/07 08:28:36;;;;;;;26.95;15.55;;;;;;;15.61;52.32;100067.88;5031286;28;20029;-84
2023/03/07 08:31:10;;;;;;;37.33;17.42;;;;;;;15.72;52.17;100056.66;5046114;28;20067;-84
2023/03/07 08:33:36;;;;;;;25.75;14.55;;;;;;;15.73;51.66;100052.94;5051938;28;20046;-84
2023/03/07 08:36:03;;;;;;;29.05;15.98;;;;;;;15.78;51.72;100053.28;5040484;28;20029;-83
2023/03/07 08:38:28;;;;;;;25.48;13.70;;;;;;;15.88;51.43;100055.81;5032635;28;20155;-85
2023/03/07 08:40:58;;;;;;;26.27;15.38;;;;;;;16.01;51.17;100051.53;5028934;28;20136;-85
2023/03/07 08:43:24;;;;;;;39.50;15.57;;;;;;;16.09;51.23;100058.81;5029906;28;20033;-83
2023/03/07 08:45:51;;;;;;;29.63;14.88;;;;;;;16.21;50.74;100054.69;5029926;28;20550;-84
2023/03/07 08:48:18;;;;;;;35.45;17.00;;;;;;;16.30;50.30;100046.34;5029757;28;20060;-85
2023/03/07 08:50:43;;;;;;;27.85;15.20;;;;;;;16.39;50.52;100043.63;5029674;28;20166;-83
2023/03/07 08:53:09;;;;;;;30.23;14.02;;;;;;;16.59;49.89;100044.91;5028996;28;20552;-83
2023/03/07 08:55:35;;;;;;;26.00;12.00;;;;;;;16.67;49.29;100036.69;5028476;28;20390;-83
2023/03/07 08:58:00;;;;;;;19.67;11.15;;;;;;;16.75;48.95;100033.97;5030147;28;20160;-84
2023/03/07 09:00:26;;;;;;;27.20;11.77;;;;;;;16.79;48.21;100038.00;5031969;28;20112;-85
2023/03/07 09:02:53;;;;;;;21.70;11.82;;;;;;;16.80;48.50;100037.81;5040865;28;20089;-84
2023/03/07 09:05:19;;;;;;;23.05;11.82;;;;;;;16.79;48.59;100024.41;5032284;28;20600;-84
2023/03/07 09:07:44;;;;;;;23.08;14.43;;;;;;;16.85;48.58;100032.69;5032979;28;20053;-85
2023/03/07 09:10:10;;;;;;;25.35;11.40;;;;;;;16.87;48.43;100032.53;5031697;28;20447;-83
2023/03/07 09:12:36;;;;;;;16.77;10.48;;;;;;;16.79;48.10;100019.81;5036368;28;20022;-83
2023/03/07 09:15:01;;;;;;;29.85;12.02;;;;;;;16.93;48.12;100023.66;5030928;28;20037;-86
2023/03/07 09:17:27;;;;;;;21.60;12.32;;;;;;;17.11;48.14;100023.34;5032009;28;20025;-85
2023/03/07 09:19:52;;;;;;;22.25;11.55;;;;;;;17.15;47.46;100016.53;5033612;28;20108;-83
2023/03/07 09:22:18;;;;;;;26.25;13.10;;;;;;;17.23;47.87;100022.75;5031175;28;20118;-85
2023/03/07 09:24:43;;;;;;;37.28;17.15;;;;;;;17.27;47.73;100013.22;5030567;28;20029;-84
2023/03/07 09:27:10;;;;;;;37.03;18.30;;;;;;;17.37;48.21;100019.22;5033040;28;20030;-84
2023/03/07 09:29:35;;;;;;;36.80;17.30;;;;;;;17.38;47.75;100009.19;5038438;28;20100;-81
2023/03/07 09:32:02;;;;;;;35.33;15.82;;;;;;;17.47;47.47;100012.69;5051811;28;20033;-83
2023/03/07 09:34:28;;;;;;;31.65;15.57;;;;;;;17.46;47.01;99997.41;5047066;28;20116;-84
2023/03/07 09:36:53;;;;;;;62.22;18.15;;;;;;;17.54;47.13;100002.75;5031021;28;20100;-84
2023/03/07 09:39:19;;;;;;;28.02;16.35;;;;;;;17.17;47.79;100007.16;5031263;28;20036;-83
2023/03/07 09:42:05;;;;;;;43.92;17.67;;;;;;;17.07;47.98;100016.56;5030450;28;20030;-85
2023/03/07 09:44:34;;;;;;;31.17;16.35;;;;;;;16.85;47.58;100012.81;5028947;28;20037;-83
2023/03/07 09:47:22;;;;;;;27.27;15.73;;;;;;;16.66;48.14;100019.59;5031087;28;20030;-84
2023/03/07 09:49:51;;;;;;;24.92;16.90;;;;;;;16.35;48.88;100026.84;5031020;28;20029;-84
2023/03/07 09:52:20;;;;;;;30.00;15.75;;;;;;;16.16;49.51;100017.25;5030925;28;20026;-85
2023/03/07 09:54:56;;;;;;;62.70;16.33;;;;;;;16.10;50.31;100001.66;5030374;28;20026;-83
2023/03/07 09:57:31;;;;;;;35.30;15.80;;;;;;;16.12;50.15;100009.63;5033000;28;20028;-83
2023/03/07 10:00:16;;;;;;;37.33;14.25;;;;;;;16.12;50.26;100009.63;5031940;28;20029;-85
2023/03/07 10:03:06;;;;;;;153.68;26.83;;;;;;;15.93;50.90;100005.44;5033307;28;20053;-83
2023/03/07 10:05:38;;;;;;;43.95;14.65;;;;;;;16.01;50.76;100002.72;5039865;28;20026;-82
2023/03/07 10:08:04;;;;;;;33.95;13.95;;;;;;;15.96;51.04;99988.00;5037825;28;20026;-84
2023/03/07 10:10:38;;;;;;;32.35;14.75;;;;;;;16.02;51.00;100009.84;5035810;28;20044;-85
2023/03/07 10:13:14;;;;;;;54.47;16.40;;;;;;;16.12;51.04;99993.34;5036892;28;20040;-83
2023/03/07 10:15:59;;;;;;;55.95;15.60;;;;;;;16.16;50.98;99998.25;5049630;28;20036;-81
2023/03/07 10:18:59;;;;;;;38.35;15.35;;;;;;;16.06;52.31;99994.91;5056855;28;20037;-83
2023/03/07 10:21:55;;;;;;;42.30;13.93;;;;;;;16.15;52.64;99993.00;5029974;28;20030;-85
2023/03/07 10:24:23;;;;;;;31.42;14.68;;;;;;;16.12;52.87;99977.91;5029268;28;20073;-85
2023/03/07 10:26:55;;;;;;;34.97;13.68;;;;;;;16.38;52.78;99977.63;5027668;28;20060;-85
2023/03/07 10:29:24;;;;;;;37.60;13.68;;;;;;;16.45;52.93;99977.78;5030134;28;20034;-81
2023/03/07 10:32:11;;;;;;;44.20;15.25;;;;;;;16.50;53.01;99969.94;5016673;28;20036;-81
2023/03/07 10:34:38;;;;;;;22.97;12.83;;;;;;;16.45;52.82;99980.47;5017228;28;20061;-83
2023/03/07 10:37:47;;;;;;;50.20;14.73;;;;;;;16.40;52.90;99963.88;5011342;28;20236;-83
2023/03/07 10:40:42;;;;;;;36.78;11.50;;;;;;;16.46;52.14;99979.44;5010591;28;20209;-84
2023/03/07 10:43:26;;;;;;;20.08;9.95;;;;;;;16.32;52.07;99967.50;4952345;28;20035;-83
2023/03/07 10:46:14;;;;;;;23.35;12.45;;;;;;;16.23;52.54;99969.41;4952027;29;20035;-85
2023/03/07 10:48:44;;;;;;;18.92;11.10;;;;;;;16.36;52.07;99952.53;4952286;29;20042;-82
2023/03/07 10:51:45;;;;;;;32.95;14.23;;;;;;;16.53;51.20;99961.44;4952531;29;20159;-85
2023/03/07 10:54:17;;;;;;;32.88;12.73;;;;;;;16.69;49.81;99953.22;4952165;29;20443;-83
2023/03/07 10:57:05;;;;;;;32.35;12.18;;;;;;;16.65;50.70;99946.44;4943348;28;20054;-83
2023/03/07 10:59:31;;;;;;;30.98;12.40;;;;;;;16.85;50.75;99953.06;4971355;28;20090;-83
2023/03/07 11:01:58;;;;;;;23.00;12.13;;;;;;;17.03;50.16;99934.59;4971105;28;20359;-82
2023/03/07 11:04:26;;;;;;;35.58;12.82;;;;;;;16.99;49.78;99933.28;4954824;28;20085;-84
2023/03/07 11:06:55;;;;;;;91.70;18.13;;;;;;;16.92;50.63;99940.47;4971141;28;20046;-85
2023/03/07 11:09:26;;;;;;;22.73;11.98;;;;;;;16.76;50.82;99943.31;4971155;28;20027;-86
2023/03/07 11:11:59;;;;;;;38.15;15.25;;;;;;;16.60;51.43;99932.56;4971143;28;20154;-84
2023/03/07 11:14:27;;;;;;;37.30;13.82;;;;;;;16.56;51.84;99917.66;4953623;28;20129;-84
2023/03/07 11:16:56;;;;;;;72.97;17.33;;;;;;;16.77;52.64;99928.72;4971199;28;20246;-84
2023/03/07 11:19:42;;;;;;;26.65;12.25;;;;;;;16.66;53.07;99915.56;4984207;28;20433;-84